Terminal Aerodrome Forecast
Issued by NWS

Home | Current Version | Previous Version | Text Only | Print | Product List | Glossary On
Versions: 1 2 3 4 5 6 7 8 9 10 11 12 13 14 15 16 17 18 19 20
112
FTUS43 KILX 262001 AAA
TAFDEC
TAF AMD
KDEC 262001Z 2620/2718 21012G18KT P6SM SCT050 BKN250
     FM270100 18008KT P6SM SCT080 BKN200
     FM271000 18008KT P6SM VCTS SCT050CB BKN120
     FM271300 19011KT 6SM -SHRA BR BKN050 PROB30 2713/2716 3SM TSRA
      BR BKN030CB=

USA.gov is the U.S. government's official web portal to all federal, state and local government web resources and services.